Time;durP1;ratioP1;P1;durP2;ratioP2;P2;SDS_P1;SDS_P2;PMS_P1;PMS_P2;Temp;Humidity;BMP_temperature;BMP_pressure;BME280_temperature;BME280_humidity;BME280_pressure;Samples;Min_cycle;Max_cycle;Signal;HPM_P1;HPM_P2
2023/12/15 00:02:16;;;;;;;;;;;;;;;;;;5098822;28;19909;-79
2023/12/15 00:04:41;;;;;;;;;;;;;;;;;;5099817;28;20007;-80
2023/12/15 00:07:06;;;;;;;;;;;;;;;;;;5099748;28;19991;-80
2023/12/15 00:09:31;;;;;;;;;;;;;;;;;;5099143;28;19915;-80
2023/12/15 00:11:56;;;;;;;;;;;;;;;;;;5099410;28;19931;-79
2023/12/15 00:14:21;;;;;;;;;;;;;;;;;;5098012;28;19960;-80
2023/12/15 00:16:46;;;;;;;;;;;;;;;;;;5099223;28;19908;-80
2023/12/15 00:19:11;;;;;;;;;;;;;;;;;;5098634;28;19918;-80
2023/12/15 00:21:36;;;;;;;;;;;;;;;;;;5097910;28;19908;-79
2023/12/15 00:24:04;;;;;;;;;;;;;;;;;;5098337;28;19930;-80
2023/12/15 00:26:29;;;;;;;;;;;;;;;;;;5097605;28;19909;-80
2023/12/15 00:28:54;;;;;;;;;;;;;;;;;;5098677;28;19981;-80
2023/12/15 00:31:19;;;;;;;;;;;;;;;;;;5101846;28;20347;-80
2023/12/15 00:33:44;;;;;;;;;;;;;;;;;;5101961;28;19912;-80
2023/12/15 00:36:10;;;;;;;;;;;;;;;;;;5101569;28;19908;-80
2023/12/15 00:38:35;;;;;;;;;;;;;;;;;;5103785;28;19911;-80
2023/12/15 00:41:00;;;;;;;;;;;;;;;;;;5103270;28;19951;-80
2023/12/15 00:43:25;;;;;;;;;;;;;;;;;;5103265;28;19920;-80
2023/12/15 00:45:50;;;;;;;;;;;;;;;;;;5103346;28;19919;-80
2023/12/15 00:48:15;;;;;;;;;;;;;;;;;;5101742;28;19919;-80
2023/12/15 00:50:40;;;;;;;;;;;;;;;;;;5101126;28;19908;-80
2023/12/15 00:53:05;;;;;;;;;;;;;;;;;;5101148;28;19916;-80
2023/12/15 00:55:30;;;;;;;;;;;;;;;;;;5101623;28;19908;-80
2023/12/15 00:57:55;;;;;;;;;;;;;;;;;;5102386;28;19958;-80
2023/12/15 01:00:21;;;;;;;;;;;;;;;;;;5102300;28;19912;-80
2023/12/15 01:02:46;;;;;;;;;;;;;;;;;;5102403;28;20158;-80
2023/12/15 01:05:11;;;;;;;;;;;;;;;;;;5102575;28;19915;-80
2023/12/15 01:07:36;;;;;;;;;;;;;;;;;;5102077;28;19909;-80
2023/12/15 01:10:01;;;;;;;;;;;;;;;;;;5099330;28;19916;-79
2023/12/15 01:12:26;;;;;;;;;;;;;;;;;;5099818;28;20361;-79
2023/12/15 01:14:51;;;;;;;;;;;;;;;;;;5101101;28;20357;-80
2023/12/15 01:17:16;;;;;;;;;;;;;;;;;;5099963;28;20431;-79
2023/12/15 01:19:41;;;;;;;;;;;;;;;;;;5099824;28;19948;-79
2023/12/15 01:22:06;;;;;;;;;;;;;;;;;;5097583;28;19947;-79
2023/12/15 01:24:32;;;;;;;;;;;;;;;;;;5095801;28;19947;-79
2023/12/15 01:26:57;;;;;;;;;;;;;;;;;;5095808;28;20003;-79
2023/12/15 01:29:22;;;;;;;;;;;;;;;;;;5096492;28;20434;-79
2023/12/15 01:31:47;;;;;;;;;;;;;;;;;;5096500;28;19909;-79
2023/12/15 01:34:12;;;;;;;;;;;;;;;;;;5095151;28;19908;-79
2023/12/15 01:36:37;;;;;;;;;;;;;;;;;;5095400;28;19908;-79
2023/12/15 01:39:02;;;;;;;;;;;;;;;;;;5096089;28;20012;-79
2023/12/15 01:41:27;;;;;;;;;;;;;;;;;;5093576;28;19908;-79
2023/12/15 01:43:52;;;;;;;;;;;;;;;;;;5096528;28;19908;-79
2023/12/15 01:46:17;;;;;;;;;;;;;;;;;;5096427;28;19912;-79
2023/12/15 01:48:43;;;;;;;;;;;;;;;;;;5094588;28;19995;-79
2023/12/15 01:51:08;;;;;;;;;;;;;;;;;;5096539;28;19965;-79
2023/12/15 01:53:33;;;;;;;;;;;;;;;;;;5094800;28;19923;-79
2023/12/15 01:55:58;;;;;;;;;;;;;;;;;;5096504;28;19931;-79
2023/12/15 01:58:23;;;;;;;;;;;;;;;;;;5094785;28;20377;-79
2023/12/15 02:00:48;;;;;;;;;;;;;;;;;;5094780;28;20012;-80
2023/12/15 02:03:14;;;;;;;;;;;;;;;;;;5096231;28;20002;-79
2023/12/15 02:05:39;;;;;;;;;;;;;;;;;;5094931;28;20396;-79
2023/12/15 02:08:04;;;;;;;;;;;;;;;;;;5096444;28;19986;-79
2023/12/15 02:10:29;;;;;;;;;;;;;;;;;;5089593;28;20370;-79
2023/12/15 02:12:54;;;;;;;;;;;;;;;;;;5093194;28;19908;-79
2023/12/15 02:15:19;;;;;;;;;;;;;;;;;;5096277;28;19919;-79
2023/12/15 02:17:44;;;;;;;;;;;;;;;;;;5096426;28;19908;-79
2023/12/15 02:20:09;;;;;;;;;;;;;;;;;;5094493;28;19912;-80
2023/12/15 02:22:35;;;;;;;;;;;;;;;;;;5094995;28;19909;-79
2023/12/15 02:25:00;;;;;;;;;;;;;;;;;;5094564;28;20003;-79
2023/12/15 02:27:25;;;;;;;;;;;;;;;;;;5094675;28;19908;-79
2023/12/15 02:29:50;;;;;;;;;;;;;;;;;;5094725;28;20277;-79
2023/12/15 02:32:15;;;;;;;;;;;;;;;;;;5094719;28;20381;-79
2023/12/15 02:34:40;;;;;;;;;;;;;;;;;;5094153;28;19909;-79
2023/12/15 02:37:05;;;;;;;;;;;;;;;;;;5085618;28;20282;-79
2023/12/15 02:39:31;;;;;;;;;;;;;;;;;;5095618;28;20384;-79
2023/12/15 02:41:56;;;;;;;;;;;;;;;;;;5094513;28;19908;-79
2023/12/15 02:44:21;;;;;;;;;;;;;;;;;;5094505;28;19912;-79
2023/12/15 02:46:46;;;;;;;;;;;;;;;;;;5094261;28;19915;-79
2023/12/15 02:49:12;;;;;;;;;;;;;;;;;;5095279;28;19931;-80
2023/12/15 02:51:37;;;;;;;;;;;;;;;;;;5095895;28;19912;-79
2023/12/15 02:54:02;;;;;;;;;;;;;;;;;;5095420;28;20388;-79
2023/12/15 02:56:27;;;;;;;;;;;;;;;;;;5096193;28;19915;-79
2023/12/15 02:58:52;;;;;;;;;;;;;;;;;;5095632;28;19919;-80
2023/12/15 03:01:17;;;;;;;;;;;;;;;;;;5095847;28;19908;-80
2023/12/15 03:03:42;;;;;;;;;;;;;;;;;;5097292;28;20030;-79
2023/12/15 03:06:07;;;;;;;;;;;;;;;;;;5097440;28;19912;-79
2023/12/15 03:08:33;;;;;;;;;;;;;;;;;;5096078;28;19959;-79
2023/12/15 03:10:58;;;;;;;;;;;;;;;;;;5097247;28;19908;-79
2023/12/15 03:13:23;;;;;;;;;;;;;;;;;;5095291;28;19975;-80
2023/12/15 03:15:48;;;;;;;;;;;;;;;;;;5096761;28;19912;-80
2023/12/15 03:18:13;;;;;;;;;;;;;;;;;;5096871;28;19920;-80
2023/12/15 03:20:38;;;;;;;;;;;;;;;;;;5094754;28;19912;-79
2023/12/15 03:23:03;;;;;;;;;;;;;;;;;;5096842;28;19994;-79
2023/12/15 03:25:28;;;;;;;;;;;;;;;;;;5096407;28;20351;-80
2023/12/15 03:27:53;;;;;;;;;;;;;;;;;;5096567;28;19908;-79
2023/12/15 03:30:19;;;;;;;;;;;;;;;;;;5096746;28;20002;-80
2023/12/15 03:32:44;;;;;;;;;;;;;;;;;;5097387;28;19939;-80
2023/12/15 03:35:09;;;;;;;;;;;;;;;;;;5097333;28;19908;-80
2023/12/15 03:37:34;;;;;;;;;;;;;;;;;;5094767;28;19912;-79
2023/12/15 03:39:59;;;;;;;;;;;;;;;;;;5094673;28;19962;-80
2023/12/15 03:42:24;;;;;;;;;;;;;;;;;;5096300;28;19915;-79
2023/12/15 03:44:49;;;;;;;;;;;;;;;;;;5096366;28;19908;-80
2023/12/15 03:47:14;;;;;;;;;;;;;;;;;;5096172;28;19961;-79
2023/12/15 03:49:39;;;;;;;;;;;;;;;;;;5096533;28;19961;-80
2023/12/15 03:52:05;;;;;;;;;;;;;;;;;;5094710;28;19970;-79
2023/12/15 03:54:30;;;;;;;;;;;;;;;;;;5095502;28;20014;-79
2023/12/15 03:56:55;;;;;;;;;;;;;;;;;;5096447;28;20289;-80
2023/12/15 03:59:20;;;;;;;;;;;;;;;;;;5094665;28;19916;-79
2023/12/15 04:01:45;;;;;;;;;;;;;;;;;;5094477;28;20289;-79
2023/12/15 04:04:11;;;;;;;;;;;;;;;;;;5093835;28;20408;-79
2023/12/15 04:06:36;;;;;;;;;;;;;;;;;;5095165;28;19908;-79
2023/12/15 04:09:01;;;;;;;;;;;;;;;;;;5092922;28;19981;-79
2023/12/15 04:11:26;;;;;;;;;;;;;;;;;;5094432;28;19908;-79
2023/12/15 04:13:52;;;;;;;;;;;;;;;;;;5094604;28;19915;-79
2023/12/15 04:16:17;;;;;;;;;;;;;;;;;;5093050;28;19914;-79
2023/12/15 04:18:42;;;;;;;;;;;;;;;;;;5092910;28;19948;-79
2023/12/15 04:21:07;;;;;;;;;;;;;;;;;;5092857;28;19995;-79
2023/12/15 04:23:32;;;;;;;;;;;;;;;;;;5093658;28;20002;-79
2023/12/15 04:25:58;;;;;;;;;;;;;;;;;;5093807;28;19909;-79
2023/12/15 04:28:23;;;;;;;;;;;;;;;;;;5091971;28;19908;-78
2023/12/15 04:30:48;;;;;;;;;;;;;;;;;;5093058;28;19995;-79
2023/12/15 04:33:13;;;;;;;;;;;;;;;;;;5093457;28;19914;-79
2023/12/15 04:35:38;;;;;;;;;;;;;;;;;;5093481;28;19909;-78
2023/12/15 04:38:03;;;;;;;;;;;;;;;;;;5093405;28;19912;-79
2023/12/15 04:40:28;;;;;;;;;;;;;;;;;;5091654;28;19912;-79
2023/12/15 04:42:53;;;;;;;;;;;;;;;;;;5091750;28;19908;-78
2023/12/15 04:45:18;;;;;;;;;;;;;;;;;;5091803;28;19908;-79
2023/12/15 04:47:44;;;;;;;;;;;;;;;;;;5091875;28;20262;-79
2023/12/15 04:50:09;;;;;;;;;;;;;;;;;;5093040;28;20024;-80
2023/12/15 04:52:34;;;;;;;;;;;;;;;;;;5091673;28;19963;-79
2023/12/15 04:54:59;;;;;;;;;;;;;;;;;;5091576;28;19955;-79
2023/12/15 04:57:24;;;;;;;;;;;;;;;;;;5091979;28;20006;-79
2023/12/15 04:59:49;;;;;;;;;;;;;;;;;;5092932;28;20007;-80
2023/12/15 05:02:14;;;;;;;;;;;;;;;;;;5093190;28;19908;-80
2023/12/15 05:04:39;;;;;;;;;;;;;;;;;;5093323;28;20315;-79
2023/12/15 05:07:04;;;;;;;;;;;;;;;;;;5091826;28;20417;-80
2023/12/15 05:09:29;;;;;;;;;;;;;;;;;;5091798;28;19912;-79
2023/12/15 05:11:55;;;;;;;;;;;;;;;;;;5093041;28;19912;-79
2023/12/15 05:14:20;;;;;;;;;;;;;;;;;;5092544;28;20008;-79
2023/12/15 05:16:45;;;;;;;;;;;;;;;;;;5094280;28;19915;-79
2023/12/15 05:19:10;;;;;;;;;;;;;;;;;;5096228;28;19912;-79
2023/12/15 05:21:35;;;;;;;;;;;;;;;;;;5096313;28;19920;-80
2023/12/15 05:24:00;;;;;;;;;;;;;;;;;;5096624;28;19915;-79
2023/12/15 05:26:28;;;;;;;;;;;;;;;;;;5096453;28;19912;-79
2023/12/15 05:28:54;;;;;;;;;;;;;;;;;;5095698;28;19914;-79
2023/12/15 05:31:19;;;;;;;;;;;;;;;;;;5095060;28;19994;-79
2023/12/15 05:33:44;;;;;;;;;;;;;;;;;;5094823;28;19958;-79
2023/12/15 05:36:09;;;;;;;;;;;;;;;;;;5096042;28;19908;-79
2023/12/15 05:38:34;;;;;;;;;;;;;;;;;;5096010;28;19909;-79
2023/12/15 05:40:59;;;;;;;;;;;;;;;;;;5095987;28;19955;-79
2023/12/15 05:43:24;;;;;;;;;;;;;;;;;;5094703;28;20568;-79
2023/12/15 05:45:50;;;;;;;;;;;;;;;;;;5094559;28;19908;-78
2023/12/15 05:48:15;;;;;;;;;;;;;;;;;;5096284;28;19912;-79
2023/12/15 05:50:40;;;;;;;;;;;;;;;;;;5094970;28;19916;-79
2023/12/15 05:53:05;;;;;;;;;;;;;;;;;;5096271;28;20330;-79
2023/12/15 05:55:30;;;;;;;;;;;;;;;;;;5096101;28;19908;-79
2023/12/15 05:57:55;;;;;;;;;;;;;;;;;;5094253;28;19919;-79
2023/12/15 06:00:20;;;;;;;;;;;;;;;;;;5095460;28;19912;-79
2023/12/15 06:02:46;;;;;;;;;;;;;;;;;;5094370;28;19912;-79
2023/12/15 06:05:11;;;;;;;;;;;;;;;;;;5095976;28;19908;-79
2023/12/15 06:07:36;;;;;;;;;;;;;;;;;;5094346;28;20389;-79
2023/12/15 06:10:01;;;;;;;;;;;;;;;;;;5094308;28;20061;-79
2023/12/15 06:12:26;;;;;;;;;;;;;;;;;;5094469;28;19908;-79
2023/12/15 06:14:51;;;;;;;;;;;;;;;;;;5095299;28;20045;-79
2023/12/15 06:17:16;;;;;;;;;;;;;;;;;;5094264;28;19908;-79
2023/12/15 06:19:41;;;;;;;;;;;;;;;;;;5094162;28;19962;-79
2023/12/15 06:22:07;;;;;;;;;;;;;;;;;;5092239;28;19913;-79
2023/12/15 06:24:32;;;;;;;;;;;;;;;;;;5090878;28;19915;-80
2023/12/15 06:26:57;;;;;;;;;;;;;;;;;;5095919;28;19925;-79
2023/12/15 06:29:22;;;;;;;;;;;;;;;;;;5094535;28;19915;-80
2023/12/15 06:31:47;;;;;;;;;;;;;;;;;;5096035;28;19961;-80
2023/12/15 06:34:12;;;;;;;;;;;;;;;;;;5096390;28;19931;-79
2023/12/15 06:36:37;;;;;;;;;;;;;;;;;;5094850;28;20396;-79
2023/12/15 06:39:02;;;;;;;;;;;;;;;;;;5095454;28;20012;-79
2023/12/15 06:41:28;;;;;;;;;;;;;;;;;;5096153;28;19953;-78
2023/12/15 06:43:53;;;;;;;;;;;;;;;;;;5095963;28;19908;-79
2023/12/15 06:46:18;;;;;;;;;;;;;;;;;;5096403;28;20024;-80
2023/12/15 06:48:44;;;;;;;;;;;;;;;;;;5095964;28;19912;-79
2023/12/15 06:51:09;;;;;;;;;;;;;;;;;;5095691;28;20285;-80
2023/12/15 06:53:34;;;;;;;;;;;;;;;;;;5096119;28;19914;-79
2023/12/15 06:55:59;;;;;;;;;;;;;;;;;;5095025;28;20002;-79
2023/12/15 06:58:24;;;;;;;;;;;;;;;;;;5096394;28;19930;-79
2023/12/15 07:00:49;;;;;;;;;;;;;;;;;;5094101;28;19919;-79
2023/12/15 07:03:15;;;;;;;;;;;;;;;;;;5093588;28;20063;-79
2023/12/15 07:05:40;;;;;;;;;;;;;;;;;;5093428;28;19908;-79
2023/12/15 07:08:05;;;;;;;;;;;;;;;;;;5093281;28;19912;-79
2023/12/15 07:10:30;;;;;;;;;;;;;;;;;;5094780;28;20394;-79
2023/12/15 07:12:55;;;;;;;;;;;;;;;;;;5093026;28;19918;-80
2023/12/15 07:15:20;;;;;;;;;;;;;;;;;;5093119;28;19908;-79
2023/12/15 07:17:45;;;;;;;;;;;;;;;;;;5093035;28;19908;-79
2023/12/15 07:20:10;;;;;;;;;;;;;;;;;;5093245;28;19915;-80
2023/12/15 07:22:35;;;;;;;;;;;;;;;;;;5093242;28;19916;-80
2023/12/15 07:25:00;;;;;;;;;;;;;;;;;;5094444;28;20342;-79
2023/12/15 07:27:26;;;;;;;;;;;;;;;;;;5094473;28;19908;-79
2023/12/15 07:29:52;;;;;;;;;;;;;;;;;;5092839;28;20058;-79
2023/12/15 07:32:17;;;;;;;;;;;;;;;;;;5095010;28;20379;-79
2023/12/15 07:34:42;;;;;;;;;;;;;;;;;;5094444;28;20019;-79
2023/12/15 07:37:07;;;;;;;;;;;;;;;;;;5094751;28;20424;-79
2023/12/15 07:39:33;;;;;;;;;;;;;;;;;;5094358;28;20447;-79
2023/12/15 07:41:58;;;;;;;;;;;;;;;;;;5093082;28;20319;-79
2023/12/15 07:44:23;;;;;;;;;;;;;;;;;;5093022;28;19943;-79
2023/12/15 07:46:48;;;;;;;;;;;;;;;;;;5095883;28;20319;-80
2023/12/15 07:49:13;;;;;;;;;;;;;;;;;;5093139;28;19991;-79
2023/12/15 07:51:38;;;;;;;;;;;;;;;;;;5094335;28;19920;-79
2023/12/15 07:54:04;;;;;;;;;;;;;;;;;;5093197;28;19908;-79
2023/12/15 07:56:29;;;;;;;;;;;;;;;;;;5093319;28;19908;-79
2023/12/15 07:58:54;;;;;;;;;;;;;;;;;;5094761;28;20028;-79
2023/12/15 08:01:19;;;;;;;;;;;;;;;;;;5094756;28;19909;-79
2023/12/15 08:03:44;;;;;;;;;;;;;;;;;;5094965;28;19909;-79
2023/12/15 08:06:09;;;;;;;;;;;;;;;;;;5095073;28;19930;-79
2023/12/15 08:08:34;;;;;;;;;;;;;;;;;;5094068;28;20281;-80
2023/12/15 08:11:00;;;;;;;;;;;;;;;;;;5093845;28;19908;-79
2023/12/15 08:13:25;;;;;;;;;;;;;;;;;;5093971;28;19973;-79
2023/12/15 08:15:50;;;;;;;;;;;;;;;;;;5094103;28;19912;-79
2023/12/15 08:18:15;;;;;;;;;;;;;;;;;;5093831;28;19912;-79
2023/12/15 08:20:40;;;;;;;;;;;;;;;;;;5095333;28;19912;-79
2023/12/15 08:23:05;;;;;;;;;;;;;;;;;;5094153;28;19919;-79
2023/12/15 08:25:30;;;;;;;;;;;;;;;;;;5094096;28;20258;-79
2023/12/15 08:27:55;;;;;;;;;;;;;;;;;;5094104;28;19954;-79
2023/12/15 08:30:20;;;;;;;;;;;;;;;;;;5094421;28;19932;-80
2023/12/15 08:32:45;;;;;;;;;;;;;;;;;;5095036;28;19912;-79
2023/12/15 08:35:11;;;;;;;;;;;;;;;;;;5094508;28;19908;-79
2023/12/15 08:37:36;;;;;;;;;;;;;;;;;;5096093;28;19973;-79
2023/12/15 08:40:01;;;;;;;;;;;;;;;;;;5094598;28;19912;-79
2023/12/15 08:42:26;;;;;;;;;;;;;;;;;;5094550;28;19908;-79
2023/12/15 08:44:51;;;;;;;;;;;;;;;;;;5095096;28;19915;-79
2023/12/15 08:47:16;;;;;;;;;;;;;;;;;;5096033;28;19908;-79
2023/12/15 08:49:41;;;;;;;;;;;;;;;;;;5096554;28;20056;-79
2023/12/15 08:52:06;;;;;;;;;;;;;;;;;;5098667;28;19951;-79
2023/12/15 08:54:31;;;;;;;;;;;;;;;;;;5098338;28;19908;-80
2023/12/15 08:56:56;;;;;;;;;;;;;;;;;;5100286;28;19908;-79
2023/12/15 08:59:22;;;;;;;;;;;;;;;;;;5099912;28;19916;-79
2023/12/15 09:01:47;;;;;;;;;;;;;;;;;;5100097;28;19915;-79
2023/12/15 09:04:12;;;;;;;;;;;;;;;;;;5098800;28;19908;-80
2023/12/15 09:06:37;;;;;;;;;;;;;;;;;;5098843;28;20277;-80
2023/12/15 09:09:02;;;;;;;;;;;;;;;;;;5100046;28;19908;-79
2023/12/15 09:11:27;;;;;;;;;;;;;;;;;;5098788;28;19970;-79
2023/12/15 09:13:52;;;;;;;;;;;;;;;;;;5100439;28;19908;-79
2023/12/15 09:16:18;;;;;;;;;;;;;;;;;;5098804;28;20281;-79
2023/12/15 09:18:43;;;;;;;;;;;;;;;;;;5099969;28;19963;-79
2023/12/15 09:21:08;;;;;;;;;;;;;;;;;;5098901;28;20011;-80
2023/12/15 09:23:33;;;;;;;;;;;;;;;;;;5099637;28;19908;-80
2023/12/15 09:25:58;;;;;;;;;;;;;;;;;;5100528;28;19908;-79
2023/12/15 09:28:23;;;;;;;;;;;;;;;;;;5098913;28;20365;-79
2023/12/15 09:30:48;;;;;;;;;;;;;;;;;;5100177;28;20004;-80
2023/12/15 09:33:14;;;;;;;;;;;;;;;;;;5100741;28;19995;-79
2023/12/15 09:35:39;;;;;;;;;;;;;;;;;;5099744;28;19908;-79
2023/12/15 09:38:04;;;;;;;;;;;;;;;;;;5099308;28;19914;-79
2023/12/15 09:40:30;;;;;;;;;;;;;;;;;;5099001;28;20024;-80
2023/12/15 09:42:55;;;;;;;;;;;;;;;;;;5100176;28;20278;-80
2023/12/15 09:45:20;;;;;;;;;;;;;;;;;;5098878;28;19908;-79
2023/12/15 09:47:45;;;;;;;;;;;;;;;;;;5099171;28;20325;-79
2023/12/15 09:50:10;;;;;;;;;;;;;;;;;;5100227;28;19908;-79
2023/12/15 09:52:36;;;;;;;;;;;;;;;;;;5100990;28;19920;-79
2023/12/15 09:55:02;;;;;;;;;;;;;;;;;;5100721;28;19939;-79
2023/12/15 09:57:27;;;;;;;;;;;;;;;;;;5101710;28;20350;-80
2023/12/15 09:59:52;;;;;;;;;;;;;;;;;;5101514;28;19935;-80
2023/12/15 10:02:17;;;;;;;;;;;;;;;;;;5103978;28;19908;-80
2023/12/15 10:04:42;;;;;;;;;;;;;;;;;;5105758;28;19929;-80
2023/12/15 10:07:07;;;;;;;;;;;;;;;;;;5106339;28;19909;-80
2023/12/15 10:09:33;;;;;;;;;;;;;;;;;;5104576;28;19978;-80
2023/12/15 10:11:58;;;;;;;;;;;;;;;;;;5105510;28;20186;-80
2023/12/15 10:14:23;;;;;;;;;;;;;;;;;;5104931;28;19968;-79
2023/12/15 10:16:48;;;;;;;;;;;;;;;;;;5104677;28;19908;-80
2023/12/15 10:19:13;;;;;;;;;;;;;;;;;;5105441;28;20369;-80
2023/12/15 10:21:39;;;;;;;;;;;;;;;;;;5104753;28;19944;-80
2023/12/15 10:24:04;;;;;;;;;;;;;;;;;;5105070;28;19939;-79
2023/12/15 10:26:29;;;;;;;;;;;;;;;;;;5104978;28;19909;-80
2023/12/15 10:28:56;;;;;;;;;;;;;;;;;;5103643;28;19909;-80
2023/12/15 10:31:21;;;;;;;;;;;;;;;;;;5104130;28;19915;-80
2023/12/15 10:33:46;;;;;;;;;;;;;;;;;;5103702;28;19909;-80
2023/12/15 10:36:11;;;;;;;;;;;;;;;;;;5103534;28;20366;-80
2023/12/15 10:38:36;;;;;;;;;;;;;;;;;;5103427;28;19908;-80
2023/12/15 10:41:01;;;;;;;;;;;;;;;;;;5104976;28;19920;-80
2023/12/15 10:43:27;;;;;;;;;;;;;;;;;;5105160;28;19908;-79
2023/12/15 10:45:52;;;;;;;;;;;;;;;;;;5105156;28;19915;-80
2023/12/15 10:48:17;;;;;;;;;;;;;;;;;;5105199;28;19954;-80
2023/12/15 10:50:42;;;;;;;;;;;;;;;;;;5105466;28;19993;-79
2023/12/15 10:53:07;;;;;;;;;;;;;;;;;;5103400;28;20390;-80
2023/12/15 10:55:32;;;;;;;;;;;;;;;;;;5105036;28;19915;-80
2023/12/15 10:57:59;;;;;;;;;;;;;;;;;;5104819;28;19908;-80
2023/12/15 11:00:25;;;;;;;;;;;;;;;;;;5102760;28;19912;-79
2023/12/15 11:02:50;;;;;;;;;;;;;;;;;;5104436;28;19915;-80
2023/12/15 11:05:15;;;;;;;;;;;;;;;;;;5104097;28;20366;-80
2023/12/15 11:07:40;;;;;;;;;;;;;;;;;;5102862;28;19916;-80
2023/12/15 11:10:05;;;;;;;;;;;;;;;;;;5104321;28;19916;-80
2023/12/15 11:12:30;;;;;;;;;;;;;;;;;;5103785;28;19908;-80
2023/12/15 11:14:55;;;;;;;;;;;;;;;;;;5102514;28;19912;-80
2023/12/15 11:17:21;;;;;;;;;;;;;;;;;;5103574;28;20006;-80
2023/12/15 11:19:46;;;;;;;;;;;;;;;;;;5104281;28;19971;-80
2023/12/15 11:22:11;;;;;;;;;;;;;;;;;;5103580;28;19953;-80
2023/12/15 11:24:36;;;;;;;;;;;;;;;;;;5103995;28;20301;-79
2023/12/15 11:27:01;;;;;;;;;;;;;;;;;;5102034;28;19916;-80
2023/12/15 11:29:26;;;;;;;;;;;;;;;;;;5102861;28;19967;-80
2023/12/15 11:31:54;;;;;;;;;;;;;;;;;;5103713;28;19915;-80
2023/12/15 11:34:19;;;;;;;;;;;;;;;;;;5104074;28;19975;-80
2023/12/15 11:36:45;;;;;;;;;;;;;;;;;;5101763;28;19908;-80
2023/12/15 11:39:12;;;;;;;;;;;;;;;;;;5101332;28;20273;-82
2023/12/15 11:41:37;;;;;;;;;;;;;;;;;;5101306;28;19915;-80
2023/12/15 11:44:02;;;;;;;;;;;;;;;;;;5101439;28;19908;-80
2023/12/15 11:46:27;;;;;;;;;;;;;;;;;;5101831;28;20010;-80
2023/12/15 11:48:53;;;;;;;;;;;;;;;;;;5103242;28;19908;-80
2023/12/15 11:51:20;;;;;;;;;;;;;;;;;;5101202;28;20319;-80
2023/12/15 11:53:47;;;;;;;;;;;;;;;;;;5101230;28;19912;-80
2023/12/15 11:56:12;;;;;;;;;;;;;;;;;;5101898;28;20239;-80
2023/12/15 11:58:37;;;;;;;;;;;;;;;;;;5101443;28;20338;-79
2023/12/15 12:01:02;;;;;;;;;;;;;;;;;;5102624;28;19941;-79
2023/12/15 12:03:30;;;;;;;;;;;;;;;;;;5100961;28;19915;-80
2023/12/15 12:05:57;;;;;;;;;;;;;;;;;;5102801;28;20392;-80
2023/12/15 12:08:22;;;;;;;;;;;;;;;;;;5101226;28;19908;-80
2023/12/15 12:10:50;;;;;;;;;;;;;;;;;;5101155;28;19984;-80
2023/12/15 12:13:16;;;;;;;;;;;;;;;;;;5100072;28;19909;-80
2023/12/15 12:15:41;;;;;;;;;;;;;;;;;;5099913;28;19916;-80
2023/12/15 12:18:06;;;;;;;;;;;;;;;;;;5100528;28;19912;-79
2023/12/15 12:20:31;;;;;;;;;;;;;;;;;;5097978;28;19912;-80
2023/12/15 12:22:56;;;;;;;;;;;;;;;;;;5098528;28;19908;-79
2023/12/15 12:25:22;;;;;;;;;;;;;;;;;;5098630;28;20250;-80
2023/12/15 12:27:47;;;;;;;;;;;;;;;;;;5098845;28;20326;-80
2023/12/15 12:30:12;;;;;;;;;;;;;;;;;;5099393;28;19908;-79
2023/12/15 12:32:38;;;;;;;;;;;;;;;;;;5099041;28;19908;-80
2023/12/15 12:35:03;;;;;;;;;;;;;;;;;;5099128;28;19908;-80
2023/12/15 12:37:29;;;;;;;;;;;;;;;;;;5099558;28;20003;-80
2023/12/15 12:39:54;;;;;;;;;;;;;;;;;;5098487;28;19938;-80
2023/12/15 12:42:20;;;;;;;;;;;;;;;;;;5099891;28;20132;-80
2023/12/15 12:44:45;;;;;;;;;;;;;;;;;;5100020;28;19938;-79
2023/12/15 12:47:10;;;;;;;;;;;;;;;;;;5099182;28;19909;-79
2023/12/15 12:49:35;;;;;;;;;;;;;;;;;;5099462;28;19908;-79
2023/12/15 12:52:00;;;;;;;;;;;;;;;;;;5099660;28;20289;-80
2023/12/15 12:54:25;;;;;;;;;;;;;;;;;;5097823;28;19952;-79
2023/12/15 12:56:50;;;;;;;;;;;;;;;;;;5097537;28;19939;-79
2023/12/15 12:59:15;;;;;;;;;;;;;;;;;;5097790;28;19951;-80
2023/12/15 13:01:40;;;;;;;;;;;;;;;;;;5097889;28;19915;-80
2023/12/15 13:04:06;;;;;;;;;;;;;;;;;;5098928;28;19977;-80
2023/12/15 13:06:31;;;;;;;;;;;;;;;;;;5099277;28;19961;-80
2023/12/15 13:08:56;;;;;;;;;;;;;;;;;;5099514;28;19936;-80
2023/12/15 13:11:21;;;;;;;;;;;;;;;;;;5099414;28;19908;-80
2023/12/15 13:13:46;;;;;;;;;;;;;;;;;;5099387;28;19930;-80
2023/12/15 13:16:14;;;;;;;;;;;;;;;;;;5098697;28;19908;-80
2023/12/15 13:18:41;;;;;;;;;;;;;;;;;;5099377;28;19908;-80
2023/12/15 13:21:08;;;;;;;;;;;;;;;;;;5098080;28;19916;-80
2023/12/15 13:23:33;;;;;;;;;;;;;;;;;;5098739;28;19981;-80
2023/12/15 13:25:59;;;;;;;;;;;;;;;;;;5098504;28;19912;-80
2023/12/15 13:28:26;;;;;;;;;;;;;;;;;;5098520;28;19962;-80
2023/12/15 13:30:52;;;;;;;;;;;;;;;;;;5099283;28;19920;-79
2023/12/15 13:33:17;;;;;;;;;;;;;;;;;;5098849;28;19908;-80
2023/12/15 13:35:42;;;;;;;;;;;;;;;;;;5099939;28;19908;-80
2023/12/15 13:38:07;;;;;;;;;;;;;;;;;;5100188;28;19908;-80
2023/12/15 13:40:32;;;;;;;;;;;;;;;;;;5100492;28;19916;-80
2023/12/15 13:42:57;;;;;;;;;;;;;;;;;;5101996;28;20339;-80
2023/12/15 13:45:22;;;;;;;;;;;;;;;;;;5100575;28;20267;-80
2023/12/15 13:47:48;;;;;;;;;;;;;;;;;;5101627;28;19908;-79
2023/12/15 13:50:15;;;;;;;;;;;;;;;;;;5100304;28;19912;-80
2023/12/15 13:52:41;;;;;;;;;;;;;;;;;;5100622;28;20269;-80
2023/12/15 13:55:06;;;;;;;;;;;;;;;;;;5101838;28;20360;-80
2023/12/15 13:57:32;;;;;;;;;;;;;;;;;;5101552;28;20384;-80
2023/12/15 13:59:57;;;;;;;;;;;;;;;;;;5099624;28;19912;-80
2023/12/15 14:02:22;;;;;;;;;;;;;;;;;;5100126;28;20101;-80
2023/12/15 14:04:47;;;;;;;;;;;;;;;;;;5099986;28;20196;-80
2023/12/15 14:07:12;;;;;;;;;;;;;;;;;;5100143;28;19977;-80
2023/12/15 14:09:37;;;;;;;;;;;;;;;;;;5101128;28;19951;-79
2023/12/15 14:12:02;;;;;;;;;;;;;;;;;;5099634;28;19915;-80
2023/12/15 14:14:28;;;;;;;;;;;;;;;;;;5100912;28;19915;-80
2023/12/15 14:16:53;;;;;;;;;;;;;;;;;;5099807;28;19916;-79
2023/12/15 14:19:18;;;;;;;;;;;;;;;;;;5101466;28;19908;-80
2023/12/15 14:21:43;;;;;;;;;;;;;;;;;;5100466;28;19908;-79
2023/12/15 14:24:08;;;;;;;;;;;;;;;;;;5101017;28;19908;-80
2023/12/15 14:26:33;;;;;;;;;;;;;;;;;;5099220;28;19915;-80
2023/12/15 14:28:58;;;;;;;;;;;;;;;;;;5100654;28;20483;-79
2023/12/15 14:31:24;;;;;;;;;;;;;;;;;;5098677;28;20316;-80
2023/12/15 14:33:49;;;;;;;;;;;;;;;;;;5100035;28;19998;-80
2023/12/15 14:36:14;;;;;;;;;;;;;;;;;;5100792;28;19915;-80
2023/12/15 14:38:41;;;;;;;;;;;;;;;;;;5090839;28;19908;-80
2023/12/15 14:41:06;;;;;;;;;;;;;;;;;;5098355;28;19916;-80
2023/12/15 14:43:31;;;;;;;;;;;;;;;;;;5099223;28;19962;-80
2023/12/15 14:45:56;;;;;;;;;;;;;;;;;;5099378;28;19918;-80
2023/12/15 14:48:22;;;;;;;;;;;;;;;;;;5098424;28;19915;-79
2023/12/15 14:50:47;;;;;;;;;;;;;;;;;;5098560;28;19908;-79
2023/12/15 14:53:12;;;;;;;;;;;;;;;;;;5098450;28;19916;-80
2023/12/15 14:55:37;;;;;;;;;;;;;;;;;;5100425;28;19908;-80
2023/12/15 14:58:02;;;;;;;;;;;;;;;;;;5098432;28;19947;-80
2023/12/15 15:00:27;;;;;;;;;;;;;;;;;;5098219;28;19977;-80
2023/12/15 15:02:54;;;;;;;;;;;;;;;;;;5097815;28;20395;-79
2023/12/15 15:05:19;;;;;;;;;;;;;;;;;;5098325;28;19948;-80
2023/12/15 15:07:44;;;;;;;;;;;;;;;;;;5098648;28;20003;-79
2023/12/15 15:10:10;;;;;;;;;;;;;;;;;;5099614;28;19915;-80
2023/12/15 15:12:35;;;;;;;;;;;;;;;;;;5098552;28;19916;-80
2023/12/15 15:15:00;;;;;;;;;;;;;;;;;;5097989;28;20331;-80
2023/12/15 15:17:27;;;;;;;;;;;;;;;;;;5098189;28;19908;-79
2023/12/15 15:19:52;;;;;;;;;;;;;;;;;;5098852;28;20293;-79
2023/12/15 15:22:17;;;;;;;;;;;;;;;;;;5099562;28;20251;-80
2023/12/15 15:24:42;;;;;;;;;;;;;;;;;;5097331;28;20007;-79
2023/12/15 15:27:07;;;;;;;;;;;;;;;;;;5099170;28;19908;-79
2023/12/15 15:29:32;;;;;;;;;;;;;;;;;;5099205;28;19908;-80
2023/12/15 15:31:57;;;;;;;;;;;;;;;;;;5098702;28;19909;-80
2023/12/15 15:34:22;;;;;;;;;;;;;;;;;;5099089;28;19933;-80
2023/12/15 15:36:47;;;;;;;;;;;;;;;;;;5100829;28;19908;-79
2023/12/15 15:39:13;;;;;;;;;;;;;;;;;;5098918;28;19908;-80
2023/12/15 15:41:38;;;;;;;;;;;;;;;;;;5100414;28;19930;-79
2023/12/15 15:44:03;;;;;;;;;;;;;;;;;;5098653;28;19914;-79
2023/12/15 15:46:28;;;;;;;;;;;;;;;;;;5101111;28;19958;-80
2023/12/15 15:48:53;;;;;;;;;;;;;;;;;;5098602;28;19934;-79
2023/12/15 15:51:18;;;;;;;;;;;;;;;;;;5098775;28;19918;-79
2023/12/15 15:53:43;;;;;;;;;;;;;;;;;;5099370;28;19939;-79
2023/12/15 15:56:08;;;;;;;;;;;;;;;;;;5098720;28;19912;-80
2023/12/15 15:58:34;;;;;;;;;;;;;;;;;;5100353;28;19934;-79
2023/12/15 16:00:59;;;;;;;;;;;;;;;;;;5098642;28;19912;-78
2023/12/15 16:03:24;;;;;;;;;;;;;;;;;;5098401;28;19916;-79
2023/12/15 16:05:49;;;;;;;;;;;;;;;;;;5099469;28;19908;-80
2023/12/15 16:08:14;;;;;;;;;;;;;;;;;;5098735;28;19962;-80
2023/12/15 16:10:41;;;;;;;;;;;;;;;;;;5100235;28;19908;-80
2023/12/15 16:13:06;;;;;;;;;;;;;;;;;;5100554;28;19912;-79
2023/12/15 16:15:31;;;;;;;;;;;;;;;;;;5098527;28;19930;-79
2023/12/15 16:17:56;;;;;;;;;;;;;;;;;;5099397;28;19934;-80
2023/12/15 16:20:21;;;;;;;;;;;;;;;;;;5100339;28;19983;-79
2023/12/15 16:22:47;;;;;;;;;;;;;;;;;;5100151;28;19915;-79
2023/12/15 16:25:12;;;;;;;;;;;;;;;;;;5099108;28;19957;-79
2023/12/15 16:27:37;;;;;;;;;;;;;;;;;;5097100;28;19919;-80
2023/12/15 16:30:02;;;;;;;;;;;;;;;;;;5099731;28;19948;-80
2023/12/15 16:32:28;;;;;;;;;;;;;;;;;;5098921;28;19916;-80